Time;durP1;ratioP1;P1;durP2;ratioP2;P2;SDS_P1;SDS_P2;PMS_P1;PMS_P2;Temp;Humidity;BMP_temperature;BMP_pressure;BME280_temperature;BME280_humidity;BME280_pressure;Samples;Min_cycle;Max_cycle;Signal;HPM_P1;HPM_P2
2023/10/17 00:00:20;;;;;;;7.23;3.67;;;;;;;9.87;61.40;100847.78;5053691;28;20239;-72
2023/10/17 00:02:48;;;;;;;7.63;3.67;;;;;;;9.90;61.32;100853.66;5054705;28;20277;-69
2023/10/17 00:05:17;;;;;;;7.77;3.67;;;;;;;9.92;61.27;100854.38;5051690;28;20833;-70
2023/10/17 00:07:46;;;;;;;6.37;2.93;;;;;;;9.98;61.05;100858.28;5052553;28;20286;-69
2023/10/17 00:10:18;;;;;;;7.47;3.47;;;;;;;9.97;61.08;100849.47;5053015;28;21173;-71
2023/10/17 00:12:51;;;;;;;6.37;2.80;;;;;;;9.99;60.87;100852.84;5052655;28;20293;-69
2023/10/17 00:15:27;;;;;;;8.93;3.57;;;;;;;9.99;60.96;100860.78;5055709;28;20207;-69
2023/10/17 00:18:01;;;;;;;7.10;3.50;;;;;;;9.97;60.84;100860.09;5051609;28;20201;-71
2023/10/17 00:20:37;;;;;;;7.73;3.37;;;;;;;10.01;60.52;100860.66;5052819;28;20345;-70
2023/10/17 00:23:06;;;;;;;7.17;3.03;;;;;;;9.99;60.83;100855.50;5053725;28;20678;-69
2023/10/17 00:25:35;;;;;;;8.40;3.50;;;;;;;9.98;60.93;100850.31;5052917;28;20293;-69
2023/10/17 00:28:05;;;;;;;7.43;3.50;;;;;;;9.99;60.90;100855.50;5053318;28;20215;-67
2023/10/17 00:30:33;;;;;;;8.50;3.20;;;;;;;9.97;61.01;100856.59;5048435;28;20232;-68
2023/10/17 00:33:01;;;;;;;9.13;3.40;;;;;;;9.94;60.99;100841.78;5049800;28;20204;-69
2023/10/17 00:35:36;;;;;;;7.27;3.07;;;;;;;9.93;61.04;100850.75;5051422;28;20211;-69
2023/10/17 00:38:07;;;;;;;9.40;3.23;;;;;;;9.95;60.93;100848.78;5055422;28;20203;-71
2023/10/17 00:40:44;;;;;;;7.13;2.90;;;;;;;9.94;60.65;100849.75;5051256;28;20772;-67
2023/10/17 00:43:14;;;;;;;5.73;2.80;;;;;;;9.86;61.06;100844.28;5050355;28;20231;-73
2023/10/17 00:45:45;;;;;;;9.90;3.17;;;;;;;9.73;61.54;100849.00;5053666;28;20231;-69
2023/10/17 00:48:19;;;;;;;5.67;2.67;;;;;;;9.71;61.44;100842.97;5052054;28;20205;-70
2023/10/17 00:50:50;;;;;;;7.00;2.93;;;;;;;9.74;61.91;100840.91;5049544;28;20239;-69
2023/10/17 00:53:20;;;;;;;8.60;3.03;;;;;;;9.77;61.50;100840.63;5049360;28;20261;-69
2023/10/17 00:55:53;;;;;;;8.73;2.97;;;;;;;9.74;61.56;100834.78;5049471;28;22578;-70
2023/10/17 00:58:24;;;;;;;7.33;2.90;;;;;;;9.69;61.61;100827.22;5048182;28;20365;-69
2023/10/17 01:00:58;;;;;;;8.77;3.00;;;;;;;9.64;61.96;100823.31;5050816;28;20257;-71
2023/10/17 01:03:29;;;;;;;8.10;3.43;;;;;;;9.60;61.99;100824.53;5050717;28;20254;-73
2023/10/17 01:06:13;;;;;;;6.97;3.00;;;;;;;9.64;62.06;100828.59;5051139;28;20503;-72
2023/10/17 01:08:44;;;;;;;7.33;3.23;;;;;;;9.65;61.89;100825.00;5049724;28;20204;-68
2023/10/17 01:11:20;;;;;;;6.77;2.80;;;;;;;9.63;61.78;100826.91;5049941;28;20342;-71
2023/10/17 01:13:52;;;;;;;8.70;4.13;;;;;;;9.60;62.03;100827.19;5049574;28;20234;-69
2023/10/17 01:16:21;;;;;;;7.00;3.10;;;;;;;9.59;62.00;100830.78;5051675;28;21113;-68
2023/10/17 01:18:48;;;;;;;4.47;2.63;;;;;;;9.55;62.20;100829.41;5049578;28;21503;-70
2023/10/17 01:21:19;;;;;;;6.50;2.80;;;;;;;9.54;62.15;100833.00;5050911;28;20240;-71
2023/10/17 01:23:47;;;;;;;7.60;2.80;;;;;;;9.48;62.33;100825.63;5049335;28;20204;-69
2023/10/17 01:26:20;;;;;;;7.53;3.07;;;;;;;9.49;62.16;100824.66;5048781;28;20214;-71
2023/10/17 01:28:50;;;;;;;7.73;2.83;;;;;;;9.48;62.11;100822.97;5050002;28;20685;-70
2023/10/17 01:31:23;;;;;;;9.63;2.87;;;;;;;9.47;62.28;100810.69;5048766;28;20381;-68
2023/10/17 01:33:54;;;;;;;6.43;2.43;;;;;;;9.46;62.30;100814.31;5052022;28;20212;-70
2023/10/17 01:36:22;;;;;;;9.77;3.00;;;;;;;9.46;62.31;100809.84;5050974;28;20210;-71
2023/10/17 01:38:50;;;;;;;7.13;2.80;;;;;;;9.51;62.26;100823.53;5051429;28;20333;-68
2023/10/17 01:41:20;;;;;;;4.67;2.60;;;;;;;9.48;62.20;100817.66;5050743;28;20290;-69
2023/10/17 01:43:49;;;;;;;5.03;2.40;;;;;;;9.46;62.14;100820.44;5050924;28;20237;-71
2023/10/17 01:46:21;;;;;;;6.07;2.93;;;;;;;9.49;62.15;100812.25;5047920;28;20787;-71
2023/10/17 01:48:53;;;;;;;7.63;3.20;;;;;;;9.48;62.19;100812.38;5048364;28;20203;-67
2023/10/17 01:51:23;;;;;;;6.03;2.67;;;;;;;9.47;62.12;100811.53;5048555;28;20228;-73
2023/10/17 01:53:51;;;;;;;7.37;3.17;;;;;;;9.44;62.35;100812.63;5051087;28;20207;-71
2023/10/17 01:56:25;;;;;;;6.83;2.70;;;;;;;9.39;62.57;100812.19;5051631;28;20602;-68
2023/10/17 01:58:55;;;;;;;5.70;2.33;;;;;;;9.38;62.39;100817.63;5050632;28;20199;-68
2023/10/17 02:01:25;;;;;;;6.10;3.00;;;;;;;9.37;62.58;100814.13;5050305;28;20238;-69
2023/10/17 02:03:53;;;;;;;8.57;2.40;;;;;;;9.39;62.57;100808.72;5049607;28;20208;-69
2023/10/17 02:06:22;;;;;;;7.03;2.87;;;;;;;9.41;62.29;100815.53;5049622;28;20500;-69
2023/10/17 02:08:50;;;;;;;7.23;3.40;;;;;;;9.37;62.46;100821.22;5052756;28;20214;-67
2023/10/17 02:11:24;;;;;;;6.97;2.87;;;;;;;9.34;62.59;100817.03;5050147;28;20235;-70
2023/10/17 02:13:56;;;;;;;5.97;3.00;;;;;;;9.34;62.71;100816.19;5048850;28;20243;-70
2023/10/17 02:16:24;;;;;;;8.57;3.10;;;;;;;9.30;62.90;100817.44;5049053;28;20205;-68
2023/10/17 02:18:54;;;;;;;7.53;3.10;;;;;;;9.31;62.65;100813.84;5051522;28;20604;-71
2023/10/17 02:21:22;;;;;;;9.30;2.80;;;;;;;9.30;62.80;100810.34;5055896;28;20219;-69
2023/10/17 02:23:50;;;;;;;6.90;2.70;;;;;;;9.33;62.55;100812.72;5054324;28;20203;-70
2023/10/17 02:26:22;;;;;;;7.27;2.80;;;;;;;9.32;62.70;100818.97;5053225;28;20249;-68
2023/10/17 02:28:51;;;;;;;6.50;3.00;;;;;;;9.30;62.50;100809.50;5053892;28;20665;-68
2023/10/17 02:31:27;;;;;;;9.67;3.87;;;;;;;9.29;62.42;100813.97;5054157;28;20222;-68
2023/10/17 02:33:56;;;;;;;8.67;2.93;;;;;;;9.28;62.74;100811.44;5052613;28;20215;-71
2023/10/17 02:36:24;;;;;;;7.23;3.27;;;;;;;9.27;62.62;100799.16;5051364;28;20338;-68
2023/10/17 02:38:52;;;;;;;8.43;3.17;;;;;;;9.27;62.34;100794.72;5053246;28;20211;-68
2023/10/17 02:41:22;;;;;;;6.93;2.30;;;;;;;9.24;62.68;100794.13;5053903;28;20666;-69
2023/10/17 02:43:52;;;;;;;7.73;2.90;;;;;;;9.24;62.53;100789.69;5053790;28;20218;-69
2023/10/17 02:46:26;;;;;;;7.00;3.00;;;;;;;9.22;62.76;100785.50;5053359;28;20195;-69
2023/10/17 02:48:54;;;;;;;7.67;3.00;;;;;;;9.19;63.13;100791.91;5052688;28;20555;-71
2023/10/17 02:51:33;;;;;;;8.20;2.80;;;;;;;9.18;62.96;100795.50;5051550;28;20483;-69
2023/10/17 02:54:09;;;;;;;6.43;2.93;;;;;;;9.12;63.44;100811.91;5050992;28;20510;-68
2023/10/17 02:56:46;;;;;;;6.50;2.97;;;;;;;9.09;63.27;100812.16;5052413;28;20206;-70
2023/10/17 02:59:17;;;;;;;5.27;3.10;;;;;;;9.10;63.30;100803.25;5053332;28;20646;-71
2023/10/17 03:01:52;;;;;;;8.40;3.20;;;;;;;9.08;63.29;100799.91;5052507;28;20236;-72
2023/10/17 03:04:23;;;;;;;7.30;3.20;;;;;;;9.09;63.22;100801.59;5055607;28;20212;-67
2023/10/17 03:06:53;;;;;;;7.87;3.50;;;;;;;9.10;63.22;100789.19;5052411;28;20211;-69
2023/10/17 03:09:36;;;;;;;7.27;3.07;;;;;;;9.10;63.19;100797.97;5054112;28;20408;-71
2023/10/17 03:12:19;;;;;;;5.83;2.90;;;;;;;9.04;63.38;100798.50;5051109;28;20761;-70
2023/10/17 03:17:33;;;;;;;5.47;2.77;;;;;;;9.06;63.54;100793.91;5052392;28;20243;-71
2023/10/17 03:20:00;;;;;;;6.00;2.93;;;;;;;9.06;63.55;100796.53;5055048;28;20204;-72
2023/10/17 03:22:28;;;;;;;7.43;3.23;;;;;;;9.07;63.41;100790.28;5051110;28;20215;-70
2023/10/17 03:25:02;;;;;;;6.90;2.70;;;;;;;9.11;63.15;100793.53;5054501;28;20364;-69
2023/10/17 03:27:36;;;;;;;11.93;4.07;;;;;;;9.09;63.17;100775.13;5050602;28;20203;-70
2023/10/17 03:30:05;;;;;;;7.57;3.27;;;;;;;9.03;63.56;100765.06;5053512;28;20279;-73
2023/10/17 03:32:43;;;;;;;6.60;3.03;;;;;;;9.07;63.31;100761.19;5053193;28;20231;-68
2023/10/17 03:35:20;;;;;;;5.80;3.10;;;;;;;9.09;63.26;100763.72;5055664;28;20230;-70
2023/10/17 03:37:48;;;;;;;5.30;3.00;;;;;;;9.02;63.79;100766.03;5056321;28;20205;-71
2023/10/17 03:40:19;;;;;;;10.73;3.40;;;;;;;9.05;63.50;100768.44;5054645;28;20372;-69
2023/10/17 03:42:53;;;;;;;7.97;3.50;;;;;;;9.10;63.24;100768.88;5052931;28;20242;-67
2023/10/17 03:45:26;;;;;;;7.57;2.87;;;;;;;9.07;63.37;100769.13;5050624;28;20206;-69
2023/10/17 03:47:59;;;;;;;10.40;3.13;;;;;;;9.12;63.26;100769.59;5051644;28;20200;-69
2023/10/17 03:50:34;;;;;;;8.10;3.40;;;;;;;9.13;63.56;100765.13;5047891;28;20222;-69
2023/10/17 03:53:14;;;;;;;5.70;2.90;;;;;;;9.13;63.30;100771.25;5049105;28;20584;-74
2023/10/17 03:55:43;;;;;;;6.23;3.20;;;;;;;9.11;63.38;100773.19;5052470;28;20232;-71
2023/10/17 03:58:24;;;;;;;8.53;3.30;;;;;;;9.11;63.34;100762.63;5054875;28;20312;-68
2023/10/17 04:00:52;;;;;;;4.40;2.53;;;;;;;9.10;63.41;100768.03;5053719;28;20198;-68
2023/10/17 04:03:24;;;;;;;5.47;3.00;;;;;;;9.06;63.54;100757.69;5055846;28;20215;-70
2023/10/17 04:06:01;;;;;;;6.93;2.87;;;;;;;9.08;63.43;100762.88;5055801;28;20207;-69
2023/10/17 04:08:35;;;;;;;5.27;2.80;;;;;;;9.06;63.34;100770.94;5055661;28;20609;-69
2023/10/17 04:11:17;;;;;;;10.63;4.13;;;;;;;9.06;63.65;100765.63;5052297;28;20276;-70
2023/10/17 04:13:48;;;;;;;12.43;4.07;;;;;;;9.04;63.61;100759.66;5050835;28;20231;-71
2023/10/17 04:16:21;;;;;;;7.83;3.47;;;;;;;9.04;63.55;100761.47;5052422;28;20294;-69
2023/10/17 04:18:55;;;;;;;6.50;2.87;;;;;;;8.97;63.69;100768.25;5052026;28;20314;-70
2023/10/17 04:21:29;;;;;;;5.63;3.00;;;;;;;9.00;63.54;100775.91;5051751;28;20220;-67
2023/10/17 04:24:01;;;;;;;7.67;3.10;;;;;;;8.98;63.74;100772.56;5050977;28;20207;-72
2023/10/17 04:26:34;;;;;;;6.20;2.60;;;;;;;8.97;63.70;100773.53;5051144;28;20206;-72
2023/10/17 04:29:12;;;;;;;5.93;2.90;;;;;;;8.95;63.60;100778.13;5050849;28;20565;-69
2023/10/17 04:31:43;;;;;;;6.27;3.00;;;;;;;8.95;63.48;100773.66;5052547;28;20204;-70
2023/10/17 04:34:17;;;;;;;8.13;3.00;;;;;;;8.95;63.64;100775.47;5052003;28;21160;-70
2023/10/17 04:36:46;;;;;;;6.67;3.30;;;;;;;8.95;63.51;100778.13;5053223;28;20301;-69
2023/10/17 04:39:19;;;;;;;5.87;2.87;;;;;;;8.90;63.86;100781.13;5053755;28;20211;-71
2023/10/17 04:44:36;;;;;;;8.07;3.03;;;;;;;8.88;63.94;100777.78;5052992;28;20203;-71
2023/10/17 04:49:53;;;;;;;5.03;2.80;;;;;;;8.87;63.85;100788.50;5053679;28;20203;-69
2023/10/17 04:52:23;;;;;;;7.70;3.53;;;;;;;8.82;64.12;100777.47;5053583;28;20233;-73
2023/10/17 04:54:54;;;;;;;10.00;3.47;;;;;;;8.84;63.96;100781.66;5054123;28;20286;-70
2023/10/17 04:57:21;;;;;;;9.27;3.33;;;;;;;8.86;64.03;100789.47;5052932;28;20208;-70
2023/10/17 05:00:09;;;;;;;6.33;3.00;;;;;;;8.87;64.02;100799.09;5054566;28;20338;-69
2023/10/17 05:02:36;;;;;;;9.40;3.40;;;;;;;8.90;63.92;100804.94;5051877;28;21007;-70
2023/10/17 06:19:02;;;;;;;;;;;;;;;;;;;;;
2023/10/17 07:12:42;;;;;;;12.17;3.83;;;;;;;9.16;64.95;100781.56;4792696;29;21043;-67
2023/10/17 07:31:55;;;;;;;8.10;3.03;;;;;;;9.41;64.58;100775.81;4936223;28;20274;-68
2023/10/17 08:57:39;;;;;;;8.40;3.67;;;;;;;10.93;59.80;100783.28;4929961;29;20220;-70
2023/10/17 09:04:13;;;;;;;9.97;3.40;;;;;;;11.03;59.47;100772.66;4925797;28;20211;-71
2023/10/17 09:07:08;;;;;;;10.13;3.43;;;;;;;11.07;58.84;100770.56;4915011;28;20232;-68
2023/10/17 09:28:28;;;;;;;5.73;2.93;;;;;;;11.34;57.44;100765.28;4895595;29;20289;-68
2023/10/17 09:35:38;;;;;;;7.60;3.57;;;;;;;11.57;56.09;100761.28;4896515;29;20593;-67
2023/10/17 09:38:49;;;;;;;7.80;3.60;;;;;;;11.67;56.18;100777.16;4930376;28;20293;-68
2023/10/17 09:45:55;;;;;;;;;;;;;;;;;;;;;
2023/10/17 09:48:36;;;;;;;5.67;2.80;;;;;;;11.81;55.38;100789.97;4950970;28;20222;-68
2023/10/17 09:51:58;;;;;;;8.20;3.60;;;;;;;11.81;55.71;100789.13;4955246;28;20584;-68
2023/10/17 10:21:03;;;;;;;10.23;3.83;;;;;;;11.88;55.10;100769.78;4885362;29;20254;-69
2023/10/17 10:24:23;;;;;;;6.07;3.37;;;;;;;11.88;54.92;100763.63;4885512;29;20205;-69
2023/10/17 10:27:40;;;;;;;8.97;3.67;;;;;;;11.91;55.63;100779.28;4884274;29;20567;-66
2023/10/17 10:30:58;;;;;;;6.23;3.00;;;;;;;11.93;54.74;100770.19;4903846;28;20751;-68
2023/10/17 10:33:55;;;;;;;6.10;3.10;;;;;;;11.93;54.81;100756.06;4993512;28;20201;-68
2023/10/17 10:36:36;;;;;;;7.07;3.73;;;;;;;11.90;54.46;100746.56;4993658;28;20739;-69
2023/10/17 10:39:50;;;;;;;;;;;;;;;;;;;;;
2023/10/17 10:43:04;;;;;;;8.03;3.73;;;;;;;11.97;55.28;100749.44;4999355;28;20351;-67
2023/10/17 10:45:50;;;;;;;5.73;3.40;;;;;;;11.97;55.04;100742.31;4998144;28;20213;-68
2023/10/17 10:57:41;;;;;;;8.57;4.33;;;;;;;11.98;54.80;100732.53;4964424;28;20211;-68
2023/10/17 11:00:44;;;;;;;7.67;3.13;;;;;;;11.97;54.49;100726.38;4963852;28;20210;-68
2023/10/17 11:06:09;;;;;;;9.07;3.83;;;;;;;11.98;54.62;100711.25;4963054;28;20410;-68
2023/10/17 11:13:17;;;;;;;7.87;4.50;;;;;;;12.09;54.90;100707.53;4944537;28;20830;-68
2023/10/17 11:16:12;;;;;;;8.67;5.27;;;;;;;12.08;54.42;100701.38;4963546;28;20210;-68
2023/10/17 11:19:13;;;;;;;9.40;3.70;;;;;;;12.14;54.96;100700.78;4964856;28;20242;-68
2023/10/17 11:55:33;;;;;;;6.63;4.03;;;;;;;13.60;50.30;100675.06;4848078;29;20247;-67
2023/10/17 12:22:00;;;;;;;8.03;3.10;;;;;;;12.98;51.83;100637.19;4723454;30;20235;-68
2023/10/17 12:40:01;;;;;;;5.90;3.33;;;;;;;13.34;51.09;100643.19;4854557;29;20360;-68
2023/10/17 12:47:07;;;;;;;4.33;2.67;;;;;;;13.30;51.04;100631.19;4863238;29;20273;-67
2023/10/17 12:50:35;;;;;;;5.07;2.63;;;;;;;13.32;51.06;100642.50;4914107;28;20201;-67
2023/10/17 12:53:55;;;;;;;6.33;2.90;;;;;;;13.31;51.20;100638.16;4908981;28;20225;-68
2023/10/17 13:20:32;;;;;;;5.97;2.87;;;;;;;13.23;51.34;100616.00;4814488;29;20704;-68
2023/10/17 13:26:52;;;;;;;5.47;3.07;;;;;;;13.15;51.83;100612.31;4961878;28;20386;-68
2023/10/17 13:30:11;;;;;;;6.50;3.23;;;;;;;13.21;51.55;100610.00;4964157;28;21188;-68
2023/10/17 13:33:49;;;;;;;6.97;2.80;;;;;;;13.40;51.50;100615.06;4963505;28;20693;-68
2023/10/17 13:37:09;;;;;;;4.73;2.67;;;;;;;13.50;51.02;100611.25;4943097;28;20235;-69
2023/10/17 13:44:01;;;;;;;5.07;2.77;;;;;;;13.49;50.94;100606.09;4918306;29;20364;-67
2023/10/17 13:46:56;;;;;;;6.10;2.90;;;;;;;13.38;50.86;100601.91;4962190;28;21014;-70
2023/10/17 14:01:27;;;;;;;7.17;3.03;;;;;;;13.21;51.41;100586.03;4792925;29;20312;-69
2023/10/17 14:15:37;;;;;;;8.97;2.80;;;;;;;13.24;52.35;100588.38;4762401;29;20238;-67
2023/10/17 14:28:46;;;;;;;7.80;3.00;;;;;;;13.39;53.23;100571.59;4964310;28;20707;-68
2023/10/17 14:31:51;;;;;;;5.73;3.20;;;;;;;13.37;53.50;100567.47;4971993;28;20222;-68
2023/10/17 16:11:21;;;;;;;3.93;2.23;;;;;;;12.67;54.71;100543.72;4924258;28;20320;-72
2023/10/17 16:17:23;;;;;;;5.97;2.30;;;;;;;12.61;55.10;100548.84;4996284;28;20235;-69
2023/10/17 16:20:05;;;;;;;6.20;2.60;;;;;;;12.57;55.27;100551.03;4981354;28;20206;-69
2023/10/17 16:23:17;;;;;;;5.07;2.43;;;;;;;12.56;55.24;100551.19;4998369;28;20209;-69
2023/10/17 16:29:38;;;;;;;6.40;3.00;;;;;;;12.50;55.17;100549.13;4992571;28;20244;-68
2023/10/17 16:32:37;;;;;;;4.30;2.57;;;;;;;12.47;55.39;100541.50;4998771;28;20217;-72
2023/10/17 16:38:14;;;;;;;5.03;2.60;;;;;;;12.44;55.58;100554.09;4992753;28;20206;-67
2023/10/17 16:40:50;;;;;;;7.00;2.40;;;;;;;12.41;55.83;100545.59;4982116;28;20327;-67
2023/10/17 16:43:24;;;;;;;5.37;2.90;;;;;;;12.39;55.91;100550.25;5000153;28;20574;-68
2023/10/17 16:46:20;;;;;;;6.50;3.00;;;;;;;12.37;55.92;100541.59;4988100;28;20209;-67
2023/10/17 16:49:16;;;;;;;6.43;2.77;;;;;;;12.37;56.03;100546.91;4995935;28;20243;-68
2023/10/17 16:52:26;;;;;;;10.20;2.97;;;;;;;12.36;56.10;100546.09;4998640;28;20272;-67
2023/10/17 17:04:38;;;;;;;6.70;3.63;;;;;;;12.34;56.89;100548.06;4997242;28;20299;-68
2023/10/17 17:21:27;;;;;;;8.73;3.80;;;;;;;12.24;57.13;100544.66;4997786;28;20202;-69
2023/10/17 17:34:48;;;;;;;15.80;8.03;;;;;;;12.19;57.60;100546.13;5084935;28;20567;-68
2023/10/17 17:37:55;;;;;;;14.90;8.17;;;;;;;12.19;57.55;100541.66;5084447;28;20199;-66
2023/10/17 17:49:41;;;;;;;11.60;5.67;;;;;;;12.14;57.44;100562.53;5083950;28;20233;-67
2023/10/17 17:59:05;;;;;;;15.03;6.33;;;;;;;12.03;58.03;100558.34;5083076;28;20199;-68
2023/10/17 18:11:36;;;;;;;10.83;6.47;;;;;;;11.87;58.75;100555.56;5082606;28;20233;-69
2023/10/17 18:14:23;;;;;;;18.30;7.57;;;;;;;11.84;58.96;100550.56;5084748;28;20201;-67
2023/10/17 18:20:07;;;;;;;18.53;7.67;;;;;;;11.77;59.28;100543.34;5082026;28;20222;-67
2023/10/17 18:22:59;;;;;;;18.20;8.90;;;;;;;11.77;59.40;100540.69;5081996;28;20213;-66
2023/10/17 18:25:56;;;;;;;17.37;8.27;;;;;;;11.75;59.35;100532.88;5088036;28;20519;-67
2023/10/17 18:28:45;;;;;;;17.40;9.03;;;;;;;11.70;59.53;100538.59;5084566;28;20239;-67
2023/10/17 18:43:34;;;;;;;17.83;9.00;;;;;;;11.57;60.54;100543.47;5077001;28;20219;-67
2023/10/17 19:14:11;;;;;;;14.23;8.53;;;;;;;11.27;60.59;100518.13;5089357;27;20546;-68
2023/10/17 19:25:44;;;;;;;13.07;8.00;;;;;;;11.16;60.59;100517.53;5092496;28;20289;-67
2023/10/17 19:28:23;;;;;;;13.90;7.23;;;;;;;11.15;60.57;100516.72;5072013;28;20296;-67
2023/10/17 19:35:06;;;;;;;18.80;8.23;;;;;;;11.11;60.68;100512.69;5090418;28;20259;-66
2023/10/17 19:38:13;;;;;;;13.43;7.33;;;;;;;11.09;60.73;100508.50;5094651;28;20216;-67
2023/10/17 19:57:30;;;;;;;12.67;6.80;;;;;;;10.89;61.40;100500.69;5088997;28;20203;-67
2023/10/17 20:06:59;;;;;;;25.73;10.40;;;;;;;10.90;60.95;100497.06;5075478;28;20788;-64
2023/10/17 20:13:17;;;;;;;22.07;10.43;;;;;;;10.86;60.73;100484.22;5082889;28;20246;-68
2023/10/17 20:16:00;;;;;;;18.10;10.33;;;;;;;10.83;60.70;100479.19;5087897;28;20192;-66
2023/10/17 20:39:29;;;;;;;14.07;6.40;;;;;;;10.59;61.07;100477.13;5039266;28;20233;-67
2023/10/17 20:42:22;;;;;;;14.77;6.77;;;;;;;10.58;61.20;100470.16;5035947;28;20235;-68
2023/10/17 20:48:31;;;;;;;10.10;5.90;;;;;;;10.51;61.27;100459.31;5034940;28;20668;-66
2023/10/17 21:00:30;;;;;;;13.47;6.30;;;;;;;10.48;61.09;100461.41;5072577;28;20239;-66
2023/10/17 21:06:31;;;;;;;9.97;5.47;;;;;;;10.44;61.09;100457.41;5072946;28;20204;-68
